createdAt,value
2022-11-25T00:01:08.863Z,99637.63
2022-11-25T00:03:37.039Z,99636.78
2022-11-25T00:06:16.708Z,99630.03
2022-11-25T00:08:46.696Z,99632.84
2022-11-25T00:11:16.892Z,99635.34
2022-11-25T00:13:45.873Z,99630.34
2022-11-25T00:16:15.604Z,99629.31
2022-11-25T00:18:46.439Z,99624.31
2022-11-25T00:21:16.522Z,99629.81
2022-11-25T00:23:44.628Z,99621.06
2022-11-25T00:26:14.144Z,99625.63
2022-11-25T00:28:44.768Z,99630.78
2022-11-25T00:31:14.571Z,99624.63
2022-11-25T00:33:42.671Z,99623.47
2022-11-25T00:36:19.684Z,99616.69
2022-11-25T00:38:48.311Z,99623.41
2022-11-25T00:41:34.030Z,99622.53
2022-11-25T00:44:20.672Z,99620.25
2022-11-25T00:46:48.589Z,99621.06
2022-11-25T00:49:16.573Z,99624.19
2022-11-25T00:51:44.459Z,99625.25
2022-11-25T00:54:12.309Z,99624.47
2022-11-25T00:56:41.166Z,99621.13
2022-11-25T00:59:10.741Z,99612.66
2022-11-25T01:01:39.037Z,99619.72
2022-11-25T01:04:07.584Z,99618.50
2022-11-25T01:06:36.079Z,99620.47
2022-11-25T01:09:04.014Z,99622.53
2022-11-25T01:11:32.005Z,99629.13
2022-11-25T01:14:01.652Z,99631.06
2022-11-25T01:16:32.048Z,99629.03
2022-11-25T01:19:00.318Z,99628.34
2022-11-25T01:21:30.335Z,99630.84
2022-11-25T01:24:00.527Z,99619.31
2022-11-25T01:26:29.303Z,99625.75
2022-11-25T01:28:59.168Z,99622.13
2022-11-25T01:31:28.854Z,99631.38
2022-11-25T01:34:00.332Z,99630.13
2022-11-25T01:36:28.519Z,99630.44
2022-11-25T01:38:59.242Z,99640.75
2022-11-25T01:41:30.491Z,99644.72
2022-11-25T01:44:13.619Z,99633.88
2022-11-25T01:46:53.265Z,99654.28
2022-11-25T01:49:28.150Z,99645.19
2022-11-25T01:52:02.061Z,99651.63
2022-11-25T01:54:35.018Z,99642.22
2022-11-25T01:57:06.951Z,99647.38
2022-11-25T01:59:38.474Z,99647.38
2022-11-25T02:02:07.251Z,99654.13
2022-11-25T02:04:40.338Z,99648.38
2022-11-25T02:07:12.515Z,99640.09
2022-11-25T02:09:43.754Z,99631.69
2022-11-25T02:12:12.221Z,99625.19
2022-11-25T02:14:40.916Z,99629.38
2022-11-25T02:17:09.146Z,99630.72
2022-11-25T02:19:51.098Z,99623.22
2022-11-25T02:22:27.361Z,99635.63
2022-11-25T02:25:01.844Z,99640.81
2022-11-25T02:27:31.656Z,99639.81
2022-11-25T02:29:59.659Z,99641.88
2022-11-25T02:32:27.720Z,99644.00
2022-11-25T02:34:55.568Z,99649.28
2022-11-25T02:37:25.164Z,99647.63
2022-11-25T02:39:54.603Z,99646.25
2022-11-25T02:42:24.068Z,99648.16
2022-11-25T02:44:53.775Z,99645.75
2022-11-25T02:47:21.645Z,99642.09
2022-11-25T02:49:49.442Z,99636.28
2022-11-25T02:52:17.426Z,99638.59
2022-11-25T02:54:45.301Z,99640.34
2022-11-25T02:57:13.193Z,99643.09
2022-11-25T02:59:41.068Z,99643.69
2022-11-25T03:02:10.379Z,99638.97
2022-11-25T03:04:38.972Z,99644.91
2022-11-25T03:07:06.952Z,99652.19
2022-11-25T03:09:34.884Z,99644.91
2022-11-25T03:12:20.686Z,99642.03
2022-11-25T03:14:48.829Z,99635.09
2022-11-25T03:17:18.092Z,99632.31
2022-11-25T03:19:45.895Z,99632.31
2022-11-25T03:22:13.757Z,99637.59
2022-11-25T03:24:41.593Z,99632.06
2022-11-25T03:27:09.510Z,99632.06
2022-11-25T03:29:37.354Z,99621.09
2022-11-25T03:32:09.348Z,99624.44
2022-11-25T03:34:39.087Z,99625.19
2022-11-25T03:37:07.181Z,99625.91
2022-11-25T03:39:35.207Z,99620.50
2022-11-25T03:42:03.195Z,99625.53
2022-11-25T03:44:31.025Z,99623.06
2022-11-25T03:46:58.863Z,99633.38
2022-11-25T03:49:26.853Z,99627.84
2022-11-25T03:51:56.493Z,99627.28
2022-11-25T03:54:24.494Z,99623.66
2022-11-25T03:56:52.427Z,99614.47
2022-11-25T03:59:20.287Z,99612.16
2022-11-25T04:01:48.225Z,99612.75
2022-11-25T04:04:16.590Z,99616.69
2022-11-25T04:06:44.630Z,99615.69
2022-11-25T04:09:13.973Z,99624.75
2022-11-25T04:11:59.496Z,99630.94
2022-11-25T04:14:27.468Z,99630.25
2022-11-25T04:16:55.440Z,99636.91
2022-11-25T04:19:23.433Z,99640.94
2022-11-25T04:21:52.557Z,99637.31
2022-11-25T04:24:22.096Z,99635.84
2022-11-25T04:26:52.559Z,99632.00
2022-11-25T04:29:20.523Z,99627.75
2022-11-25T04:31:48.391Z,99635.03
2022-11-25T04:34:16.425Z,99634.25
2022-11-25T04:36:44.319Z,99635.94
2022-11-25T04:39:12.249Z,99644.56
2022-11-25T04:41:41.526Z,99632.59
2022-11-25T04:44:09.331Z,99624.25
2022-11-25T04:46:40.744Z,99625.66
2022-11-25T04:49:08.928Z,99621.59
2022-11-25T04:51:36.785Z,99625.56
2022-11-25T04:54:04.812Z,99621.41
2022-11-25T04:56:33.005Z,99616.38
2022-11-25T04:59:19.957Z,99617.75
2022-11-25T05:01:47.889Z,99628.72
2022-11-25T05:04:16.042Z,99631.09
2022-11-25T05:06:43.903Z,99631.78
2022-11-25T05:09:12.096Z,99628.56
2022-11-25T05:11:39.979Z,99631.09
2022-11-25T05:14:09.409Z,99633.28
2022-11-25T05:16:37.315Z,99631.38
2022-11-25T05:19:05.314Z,99633.38
2022-11-25T05:21:33.920Z,99635.69
2022-11-25T05:24:01.712Z,99636.25
2022-11-25T05:26:29.565Z,99640.94
2022-11-25T05:28:57.411Z,99630.03
2022-11-25T05:31:26.777Z,99627.25
2022-11-25T05:33:54.642Z,99628.56
2022-11-25T05:36:22.487Z,99629.75
2022-11-25T05:38:50.533Z,99631.91
2022-11-25T05:41:18.390Z,99631.38
2022-11-25T05:43:47.206Z,99630.50
2022-11-25T05:46:15.194Z,99629.81
2022-11-25T05:48:44.526Z,99633.28
2022-11-25T05:51:12.512Z,99633.53
2022-11-25T05:53:40.359Z,99638.25
2022-11-25T05:56:09.162Z,99639.44
2022-11-25T05:58:37.134Z,99646.50
2022-11-25T06:01:08.972Z,99649.16
2022-11-25T06:03:38.788Z,99645.28
2022-11-25T06:06:08.959Z,99645.22
2022-11-25T06:08:37.767Z,99646.63
2022-11-25T06:11:07.133Z,99642.63
2022-11-25T06:13:35.065Z,99638.00
2022-11-25T06:16:08.426Z,99642.47
2022-11-25T06:18:37.637Z,99631.38
2022-11-25T06:21:08.082Z,99636.94
2022-11-25T06:23:37.251Z,99638.34
2022-11-25T06:26:06.634Z,99632.00
2022-11-25T06:28:34.760Z,99634.25
2022-11-25T06:31:07.476Z,99638.69
2022-11-25T06:33:35.696Z,99642.00
2022-11-25T06:36:05.384Z,99638.88
2022-11-25T06:38:35.310Z,99639.13
2022-11-25T06:41:03.808Z,99643.34
2022-11-25T06:43:33.115Z,99649.97
2022-11-25T06:46:06.061Z,99659.31
2022-11-25T06:48:34.534Z,99658.22
2022-11-25T06:51:03.933Z,99671.75
2022-11-25T06:53:32.827Z,99670.47
2022-11-25T06:56:10.326Z,99691.63
2022-11-25T06:58:38.807Z,99687.16
2022-11-25T07:01:08.904Z,99689.47
2022-11-25T07:03:36.965Z,99688.00
2022-11-25T07:06:05.214Z,99694.53
2022-11-25T07:08:34.385Z,99703.06
2022-11-25T07:11:09.256Z,99701.69
2022-11-25T07:13:37.125Z,99704.00
2022-11-25T07:16:06.590Z,99697.59
2022-11-25T07:18:36.628Z,99703.50
2022-11-25T07:21:07.098Z,99699.59
2022-11-25T07:23:35.226Z,99703.59
2022-11-25T07:26:04.728Z,99701.72
2022-11-25T07:28:34.087Z,99708.09
2022-11-25T07:31:29.111Z,99707.81
2022-11-25T07:33:59.311Z,99718.28
2022-11-25T07:36:28.044Z,99727.94
2022-11-25T07:38:56.165Z,99729.75
2022-11-25T07:41:26.091Z,99732.66
2022-11-25T07:43:57.856Z,99724.00
2022-11-25T07:46:27.935Z,99734.03
2022-11-25T07:48:57.012Z,99741.03
2022-11-25T07:51:27.580Z,99746.78
2022-11-25T07:53:56.485Z,99747.59
2022-11-25T07:56:24.937Z,99740.56
2022-11-25T07:58:52.852Z,99741.06
2022-11-25T08:01:22.480Z,99726.78
2022-11-25T08:03:51.621Z,99728.53
2022-11-25T08:06:22.202Z,99723.06
2022-11-25T08:08:54.703Z,99729.97
2022-11-25T08:11:24.584Z,99726.19
2022-11-25T08:13:52.514Z,99730.66
2022-11-25T08:16:23.426Z,99737.56
2022-11-25T08:18:51.753Z,99733.69
2022-11-25T08:21:20.251Z,99735.97
2022-11-25T08:23:49.011Z,99728.91
2022-11-25T08:26:19.880Z,99731.56
2022-11-25T08:28:48.160Z,99742.09
2022-11-25T08:31:18.531Z,99739.75
2022-11-25T08:33:48.235Z,99741.91
2022-11-25T08:36:16.588Z,99737.50
2022-11-25T08:38:45.232Z,99743.81
2022-11-25T08:41:15.234Z,99740.06
2022-11-25T08:43:43.697Z,99747.25
2022-11-25T08:46:13.559Z,99750.94
2022-11-25T08:48:41.912Z,99749.06
2022-11-25T08:51:13.651Z,99755.69
2022-11-25T08:53:42.622Z,99766.47
2022-11-25T08:56:10.925Z,99773.16
2022-11-25T08:58:39.057Z,99771.22
2022-11-25T09:01:08.131Z,99767.50
2022-11-25T09:03:38.338Z,99765.50
2022-11-25T09:06:07.258Z,99762.56
2022-11-25T09:08:38.692Z,99750.63
2022-11-25T09:11:07.341Z,99763.06
2022-11-25T09:13:35.586Z,99751.25
2022-11-25T09:16:03.780Z,99747.47
2022-11-25T09:18:32.620Z,99746.47
2022-11-25T09:21:00.616Z,99747.16
2022-11-25T09:23:28.527Z,99748.31
2022-11-25T09:25:59.123Z,99745.00
2022-11-25T09:28:27.882Z,99741.97
2022-11-25T09:30:55.759Z,99741.31
2022-11-25T09:33:23.857Z,99742.91
2022-11-25T09:35:51.759Z,99741.28
2022-11-25T09:38:19.612Z,99743.47
2022-11-25T09:40:55.394Z,99743.63
2022-11-25T09:43:56.961Z,99740.00
2022-11-25T09:46:43.301Z,99736.81
2022-11-25T09:49:24.557Z,99744.47
2022-11-25T09:52:04.288Z,99748.13
2022-11-25T09:54:36.864Z,99758.28
2022-11-25T09:57:19.955Z,99761.59
2022-11-25T10:00:00.010Z,99756.97
2022-11-25T10:02:32.743Z,99764.28
2022-11-25T10:05:06.730Z,99754.25
2022-11-25T10:07:39.486Z,99751.50
2022-11-25T10:10:15.427Z,99762.06
2022-11-25T10:12:46.106Z,99759.63
2022-11-25T10:15:20.280Z,99751.41
2022-11-25T10:17:51.005Z,99752.25
2022-11-25T10:20:22.422Z,99761.25
2022-11-25T10:22:53.350Z,99765.53
2022-11-25T10:25:23.892Z,99765.19
2022-11-25T10:27:58.250Z,99755.56
2022-11-25T10:30:35.111Z,99764.25
2022-11-25T10:33:14.103Z,99756.13
2022-11-25T10:35:50.824Z,99753.25
2022-11-25T10:38:25.332Z,99743.19
2022-11-25T10:40:55.981Z,99745.25
2022-11-25T10:43:28.615Z,99747.53
2022-11-25T10:46:12.557Z,99751.31
2022-11-25T10:49:00.232Z,99750.00
2022-11-25T10:51:40.745Z,99748.56
2022-11-25T10:54:14.072Z,99750.91
2022-11-25T10:56:49.241Z,99753.91
2022-11-25T10:59:26.120Z,99753.75
2022-11-25T11:02:15.297Z,99755.50
2022-11-25T11:04:55.832Z,99756.25
2022-11-25T11:07:24.575Z,99764.25
2022-11-25T11:09:52.453Z,99763.41
2022-11-25T11:12:24.260Z,99770.25
2022-11-25T11:14:52.604Z,99770.91
2022-11-25T11:17:37.334Z,99763.69
2022-11-25T11:20:21.226Z,99761.91
2022-11-25T11:22:55.703Z,99761.41
2022-11-25T11:25:30.566Z,99766.19
2022-11-25T11:27:58.708Z,99764.41
2022-11-25T11:30:28.240Z,99774.97
2022-11-25T11:33:00.711Z,99770.31
2022-11-25T11:35:48.029Z,99774.00
2022-11-25T11:38:33.049Z,99762.06
2022-11-25T11:41:12.846Z,99764.03
2022-11-25T11:44:07.270Z,99767.72
2022-11-25T11:46:48.640Z,99765.75
2022-11-25T11:49:31.978Z,99766.72
2022-11-25T11:52:09.383Z,99774.75
2022-11-25T11:54:44.792Z,99783.78
2022-11-25T11:57:24.082Z,99782.78
2022-11-25T11:59:54.280Z,99787.97
2022-11-25T12:02:45.312Z,99786.44
2022-11-25T12:05:19.482Z,99785.25
2022-11-25T12:07:58.685Z,99786.47
2022-11-25T12:10:31.200Z,99786.84
2022-11-25T12:13:06.773Z,99793.84
2022-11-25T12:15:42.570Z,99793.53
2022-11-25T12:18:34.574Z,99791.34
2022-11-25T12:21:06.332Z,99791.81
2022-11-25T12:23:45.288Z,99798.09
2022-11-25T12:26:19.440Z,99799.44
2022-11-25T12:28:53.220Z,99804.88
2022-11-25T12:31:25.914Z,99804.81
2022-11-25T12:34:02.555Z,99806.94
2022-11-25T12:36:35.976Z,99807.66
2022-11-25T12:39:06.252Z,99802.78
2022-11-25T12:41:42.102Z,99806.00
2022-11-25T12:44:16.650Z,99807.44
2022-11-25T12:46:47.528Z,99813.88
2022-11-25T12:49:20.854Z,99812.38
2022-11-25T12:52:12.065Z,99812.97
2022-11-25T12:55:00.464Z,99828.38
2022-11-25T12:57:49.199Z,99826.25
2022-11-25T13:03:36.031Z,99842.56
2022-11-25T13:06:41.909Z,99836.16
2022-11-25T13:09:31.723Z,99844.72
2022-11-25T13:12:12.950Z,99840.75
2022-11-25T13:15:05.820Z,99842.41
2022-11-25T13:17:40.892Z,99847.28
2022-11-25T13:20:39.979Z,99852.44
2022-11-25T13:23:22.694Z,99852.44
2022-11-25T13:25:53.677Z,99856.25
2022-11-25T13:28:31.163Z,99846.78
2022-11-25T13:31:21.667Z,99848.66
2022-11-25T13:34:04.233Z,99862.38
2022-11-25T13:36:47.215Z,99849.69
2022-11-25T13:39:16.945Z,99861.44
2022-11-25T13:41:49.812Z,99867.38
2022-11-25T13:44:28.202Z,99869.59
2022-11-25T13:46:58.355Z,99875.94
2022-11-25T13:49:34.373Z,99885.41
2022-11-25T13:52:07.310Z,99888.06
2022-11-25T13:54:40.384Z,99891.66
2022-11-25T13:57:27.046Z,99897.09
2022-11-25T14:00:01.609Z,99887.66
2022-11-25T14:02:46.060Z,99900.28
2022-11-25T14:05:43.347Z,99901.09
2022-11-25T14:08:21.738Z,99901.44
2022-11-25T14:10:58.338Z,99904.09
2022-11-25T14:13:49.337Z,99903.25
2022-11-25T14:16:38.308Z,99898.72
2022-11-25T14:22:43.967Z,99908.94
2022-11-25T14:25:20.531Z,99908.66
2022-11-25T14:27:52.214Z,99917.44
2022-11-25T14:30:21.762Z,99927.28
2022-11-25T14:32:56.139Z,99929.63
2022-11-25T14:35:29.483Z,99927.56
2022-11-25T14:38:02.462Z,99938.13
2022-11-25T14:40:36.738Z,99922.13
2022-11-25T14:43:09.047Z,99940.19
2022-11-25T14:45:38.612Z,99941.72
2022-11-25T14:48:16.686Z,99935.41
2022-11-25T14:50:56.496Z,99949.44
2022-11-25T14:53:25.664Z,99946.28
2022-11-25T14:55:55.009Z,99946.81
2022-11-25T14:58:23.165Z,99944.09
2022-11-25T15:01:00.094Z,99950.31
2022-11-25T15:03:28.142Z,99957.69
2022-11-25T15:05:57.939Z,99958.19
2022-11-25T15:08:26.839Z,99958.78
2022-11-25T15:10:57.225Z,99968.31
2022-11-25T15:13:35.689Z,99965.69
2022-11-25T15:16:11.774Z,99973.16
2022-11-25T15:18:44.664Z,99971.91
2022-11-25T15:21:16.095Z,99967.56
2022-11-25T15:23:43.972Z,99975.59
2022-11-25T15:26:18.833Z,99971.75
2022-11-25T15:28:47.575Z,99979.59
2022-11-25T15:31:21.842Z,99976.97
2022-11-25T15:33:57.546Z,99982.50
2022-11-25T15:36:27.081Z,99990.34
2022-11-25T15:38:55.067Z,99990.00
2022-11-25T15:41:33.370Z,99996.00
2022-11-25T15:44:03.708Z,100002.53
2022-11-25T15:46:36.753Z,100003.06
2022-11-25T15:49:06.992Z,100011.25
2022-11-25T15:51:40.086Z,100015.88
2022-11-25T15:54:18.553Z,100016.88
2022-11-25T15:56:50.032Z,100025.41
2022-11-25T15:59:51.412Z,100019.41
2022-11-25T16:02:50.811Z,100024.56
2022-11-25T16:05:32.207Z,100030.06
2022-11-25T16:08:02.695Z,100035.06
2022-11-25T16:10:33.446Z,100043.44
2022-11-25T16:13:34.429Z,100042.09
2022-11-25T16:16:12.093Z,100042.75
2022-11-25T16:18:44.224Z,100038.41
2022-11-25T16:21:15.980Z,100038.28
2022-11-25T16:23:47.407Z,100031.25
2022-11-25T16:26:18.967Z,100036.44
2022-11-25T16:28:54.042Z,100043.44
2022-11-25T16:31:22.668Z,100045.28
2022-11-25T16:33:54.844Z,100056.47
2022-11-25T16:36:22.935Z,100052.13
2022-11-25T16:38:53.433Z,100049.28
2022-11-25T16:41:24.269Z,100048.78
2022-11-25T16:43:52.155Z,100055.47
2022-11-25T16:46:21.479Z,100064.31
2022-11-25T16:48:49.340Z,100063.16
2022-11-25T16:51:20.329Z,100066.13
2022-11-25T16:53:49.173Z,100079.31
2022-11-25T16:56:21.569Z,100074.66
2022-11-25T16:58:49.497Z,100077.31
2022-11-25T17:01:20.774Z,100076.16
2022-11-25T17:03:48.664Z,100080.16
2022-11-25T17:06:22.127Z,100069.81
2022-11-25T17:08:51.501Z,100081.47
2022-11-25T17:11:23.244Z,100083.75
2022-11-25T17:13:53.645Z,100085.03
2022-11-25T17:16:24.541Z,100088.03
2022-11-25T17:18:54.673Z,100089.75
2022-11-25T17:21:27.029Z,100102.59
2022-11-25T17:23:55.885Z,100112.47
2022-11-25T17:26:27.746Z,100113.94
2022-11-25T17:28:59.215Z,100112.09
2022-11-25T17:31:29.838Z,100118.09
2022-11-25T17:33:57.760Z,100109.88
2022-11-25T17:36:27.951Z,100121.03
2022-11-25T17:38:56.116Z,100121.66
2022-11-25T17:41:27.573Z,100127.31
2022-11-25T17:43:56.309Z,100128.00
2022-11-25T17:46:29.463Z,100130.44
2022-11-25T17:48:57.339Z,100139.19
2022-11-25T17:51:26.650Z,100137.03
2022-11-25T17:53:54.439Z,100139.03
2022-11-25T17:56:27.094Z,100141.06
2022-11-25T17:58:55.821Z,100145.41
2022-11-25T18:01:23.911Z,100140.72
2022-11-25T18:03:53.173Z,100154.63
2022-11-25T18:06:21.270Z,100151.59
2022-11-25T18:08:50.644Z,100145.81
2022-11-25T18:11:22.928Z,100155.28
2022-11-25T18:13:51.643Z,100159.13
2022-11-25T18:16:20.963Z,100164.34
2022-11-25T18:18:48.919Z,100162.72
2022-11-25T18:21:16.802Z,100170.97
2022-11-25T18:23:44.641Z,100177.78
2022-11-25T18:26:14.273Z,100182.38
2022-11-25T18:28:42.281Z,100176.94
2022-11-25T18:31:12.881Z,100181.97
2022-11-25T18:33:41.673Z,100185.63
2022-11-25T18:36:14.020Z,100187.28
2022-11-25T18:38:42.062Z,100189.34
2022-11-25T18:41:20.836Z,100188.72
2022-11-25T18:43:48.828Z,100192.06
2022-11-25T18:46:16.887Z,100197.03
2022-11-25T18:48:44.853Z,100203.78
2022-11-25T18:51:14.421Z,100216.13
2022-11-25T18:53:42.246Z,100212.16
2022-11-25T18:56:17.802Z,100220.91
2022-11-25T18:58:50.442Z,100218.53
2022-11-25T19:01:19.806Z,100221.84
2022-11-25T19:03:47.669Z,100224.81
2022-11-25T19:06:15.686Z,100228.78
2022-11-25T19:08:43.655Z,100236.19
2022-11-25T19:11:18.841Z,100235.06
2022-11-25T19:13:50.856Z,100235.72
2022-11-25T19:16:21.976Z,100243.44
2022-11-25T19:18:50.584Z,100245.34
2022-11-25T19:21:20.942Z,100256.31
2022-11-25T19:23:49.540Z,100261.44
2022-11-25T19:26:22.126Z,100266.09
2022-11-25T19:28:52.597Z,100265.72
2022-11-25T19:31:21.590Z,100267.22
2022-11-25T19:33:51.490Z,100277.41
2022-11-25T19:36:24.777Z,100278.44
2022-11-25T19:38:53.825Z,100281.16
2022-11-25T19:41:23.164Z,100290.16
2022-11-25T19:43:51.298Z,100296.50
2022-11-25T19:46:30.036Z,100296.19
2022-11-25T19:49:03.156Z,100295.66
2022-11-25T19:51:34.224Z,100305.84
2022-11-25T19:54:02.212Z,100305.84
2022-11-25T19:56:31.482Z,100317.78
2022-11-25T19:58:59.351Z,100309.34
2022-11-25T20:01:32.852Z,100315.56
2022-11-25T20:04:02.413Z,100320.94
2022-11-25T20:06:31.420Z,100324.59
2022-11-25T20:09:06.499Z,100328.13
2022-11-25T20:11:37.172Z,100337.41
2022-11-25T20:14:05.214Z,100335.81
2022-11-25T20:16:36.827Z,100335.66
2022-11-25T20:19:07.044Z,100344.28
2022-11-25T20:21:37.710Z,100356.69
2022-11-25T20:24:11.800Z,100358.13
2022-11-25T20:26:45.935Z,100367.63
2022-11-25T20:29:17.046Z,100359.00
2022-11-25T20:31:44.935Z,100369.94
2022-11-25T20:34:12.853Z,100370.97
2022-11-25T20:36:42.307Z,100382.09
2022-11-25T20:39:17.171Z,100383.88
2022-11-25T20:41:49.383Z,100385.47
2022-11-25T20:44:17.422Z,100395.91
2022-11-25T20:46:45.352Z,100387.53
2022-11-25T20:49:22.057Z,100390.56
2022-11-25T20:51:50.638Z,100396.16
2022-11-25T20:54:18.835Z,100400.13
2022-11-25T20:56:48.303Z,100398.59
2022-11-25T20:59:21.914Z,100394.00
2022-11-25T21:01:50.461Z,100388.69
2022-11-25T21:04:20.440Z,100410.09
2022-11-25T21:06:48.505Z,100409.03
2022-11-25T21:09:19.133Z,100408.50
2022-11-25T21:11:49.190Z,100419.47
2022-11-25T21:14:19.381Z,100420.31
2022-11-25T21:16:47.761Z,100430.97
2022-11-25T21:19:16.027Z,100434.47
2022-11-25T21:21:46.910Z,100430.75
2022-11-25T21:24:27.806Z,100441.41
2022-11-25T21:26:57.774Z,100442.63
2022-11-25T21:29:25.844Z,100448.97
2022-11-25T21:31:53.876Z,100453.59
2022-11-25T21:34:21.891Z,100454.00
2022-11-25T21:36:52.805Z,100458.06
2022-11-25T21:39:29.263Z,100453.44
2022-11-25T21:42:00.648Z,100458.50
2022-11-25T21:44:32.381Z,100470.75
2022-11-25T21:47:00.440Z,100469.69
2022-11-25T21:49:28.996Z,100460.16
2022-11-25T21:51:56.823Z,100466.66
2022-11-25T21:54:24.687Z,100471.69
2022-11-25T21:56:53.036Z,100484.88
2022-11-25T21:59:22.518Z,100478.69
2022-11-25T22:01:50.399Z,100474.34
2022-11-25T22:04:21.112Z,100477.72
2022-11-25T22:06:51.039Z,100484.56
2022-11-25T22:09:19.300Z,100486.75
2022-11-25T22:11:50.423Z,100485.72
2022-11-25T22:14:29.029Z,100489.06
2022-11-25T22:16:58.130Z,100496.09
2022-11-25T22:19:28.795Z,100493.03
2022-11-25T22:21:57.053Z,100505.38
2022-11-25T22:24:25.241Z,100501.34
2022-11-25T22:26:57.663Z,100503.06
2022-11-25T22:29:34.580Z,100496.38
2022-11-25T22:32:05.882Z,100495.13
2022-11-25T22:34:36.670Z,100494.78
2022-11-25T22:37:04.783Z,100506.63
2022-11-25T22:39:32.692Z,100505.81
2022-11-25T22:42:05.501Z,100501.50
2022-11-25T22:44:39.299Z,100511.13
2022-11-25T22:47:08.264Z,100506.97
2022-11-25T22:49:40.134Z,100509.94
2022-11-25T22:52:20.240Z,100508.81
2022-11-25T22:54:48.331Z,100513.00
2022-11-25T22:57:16.265Z,100514.06
2022-11-25T22:59:45.747Z,100515.28
2022-11-25T23:02:20.687Z,100516.66
2022-11-25T23:04:52.000Z,100524.28
2022-11-25T23:07:20.839Z,100516.34
2022-11-25T23:09:49.123Z,100522.88
2022-11-25T23:12:18.655Z,100525.31
2022-11-25T23:14:48.318Z,100533.69
2022-11-25T23:17:20.742Z,100528.06
2022-11-25T23:19:49.227Z,100533.59
2022-11-25T23:22:17.426Z,100537.25
2022-11-25T23:24:46.569Z,100538.84
2022-11-25T23:27:15.491Z,100534.81
2022-11-25T23:29:43.374Z,100529.34
2022-11-25T23:32:19.408Z,100540.47
2022-11-25T23:34:50.622Z,100537.81
2022-11-25T23:37:19.912Z,100551.81
2022-11-25T23:39:54.698Z,100557.19
2022-11-25T23:42:23.225Z,100555.81
2022-11-25T23:44:51.200Z,100554.00
2022-11-25T23:47:23.177Z,100551.47
2022-11-25T23:49:53.976Z,100559.63
2022-11-25T23:52:26.731Z,100553.63
2022-11-25T23:54:55.686Z,100559.56
2022-11-25T23:57:26.369Z,100562.78
2022-11-25T23:59:54.239Z,100564.59
